Time;durP1;ratioP1;P1;durP2;ratioP2;P2;SDS_P1;SDS_P2;PMS_P1;PMS_P2;Temp;Humidity;BMP_temperature;BMP_pressure;BME280_temperature;BME280_humidity;BME280_pressure;Samples;Min_cycle;Max_cycle;Signal;HPM_P1;HPM_P2
2022/03/18 00:01:58;;;;;;;17.00;11.15;;;;;;;-0.19;85.35;103835.63;4580459;31;20538;-83
2022/03/18 00:04:37;;;;;;;15.23;10.43;;;;;;;-0.59;85.72;103764.19;4580398;31;20070;-81
2022/03/18 00:07:29;;;;;;;16.05;10.85;;;;;;;0.28;85.68;103925.94;4579951;31;20045;-82
2022/03/18 00:10:50;;;;;;;17.15;10.93;;;;;;;0.25;85.89;103921.63;4580165;31;20104;-82
2022/03/18 00:13:15;;;;;;;15.10;10.15;;;;;;;0.23;86.03;103917.31;4594692;30;20047;-83
2022/03/18 00:15:46;;;;;;;16.92;10.80;;;;;;;0.18;86.11;103924.78;4646470;30;20628;-83
2022/03/18 00:18:21;;;;;;;16.05;10.38;;;;;;;-0.03;86.13;103894.53;4646946;30;20054;-81
2022/03/18 00:20:55;;;;;;;16.20;10.98;;;;;;;-0.83;86.18;103758.34;4646499;30;20078;-83
2022/03/18 00:23:49;;;;;;;17.30;10.27;;;;;;;0.11;86.24;103910.19;4647762;30;20066;-83
2022/03/18 00:27:03;;;;;;;12.85;9.02;;;;;;;-1.30;86.33;103695.97;4612892;31;20055;-84
2022/03/18 00:29:47;;;;;;;14.63;8.68;;;;;;;-0.70;86.38;103805.25;4619208;30;20065;-81
2022/03/18 00:33:16;;;;;;;11.60;7.82;;;;;;;-1.33;86.62;103706.88;4646696;30;20047;-83
2022/03/18 00:36:01;;;;;;;12.38;7.32;;;;;;;-0.06;86.60;103924.06;4626837;30;20050;-82
2022/03/18 00:38:33;;;;;;;11.85;7.20;;;;;;;-0.58;87.43;103848.81;4646674;30;20050;-83
2022/03/18 00:41:00;;;;;;;11.98;7.25;;;;;;;-0.63;87.12;103848.66;4646513;30;20051;-82
2022/03/18 00:44:02;;;;;;;13.23;8.13;;;;;;;-0.14;87.34;103933.13;4646572;30;20389;-81
2022/03/18 00:52:03;;;;;;;11.55;7.75;;;;;;;-0.82;87.14;103826.03;4646590;30;20035;-80
2022/03/18 00:52:26;;;;;;;12.52;8.20;;;;;;;-1.38;87.52;103754.03;4646624;30;20123;-82
2022/03/18 00:54:57;;;;;;;12.32;7.90;;;;;;;-1.42;87.79;103754.75;4646400;30;20125;-83
2022/03/18 00:57:22;;;;;;;12.52;8.52;;;;;;;-1.07;87.68;103834.53;4646295;30;20425;-83
2022/03/18 01:00:16;;;;;;;11.90;8.65;;;;;;;-0.82;88.02;103876.78;4645495;30;20058;-84
2022/03/18 01:03:07;;;;;;;13.70;9.02;;;;;;;-0.69;87.71;103900.88;4640547;30;20053;-84
2022/03/18 01:05:45;;;;;;;17.35;9.15;;;;;;;-1.05;87.54;103850.66;4680213;30;20459;-83
2022/03/18 01:08:20;;;;;;;14.40;9.15;;;;;;;-0.86;87.40;103890.19;4680221;30;20046;-83
2022/03/18 01:10:46;;;;;;;16.05;9.50;;;;;;;-1.62;87.84;103758.28;4680264;30;20546;-83
2022/03/18 01:13:17;;;;;;;13.30;9.35;;;;;;;-1.28;87.94;103828.72;4665687;30;20046;-83
2022/03/18 01:15:42;;;;;;;13.57;9.55;;;;;;;-1.42;88.01;103809.66;4680271;30;20094;-83
2022/03/18 01:21:03;;;;;;;14.40;10.00;;;;;;;-1.56;88.06;103792.31;4680469;30;20077;-83
2022/03/18 01:23:29;;;;;;;13.80;9.95;;;;;;;-1.43;87.76;103823.13;4680328;30;20135;-83
2022/03/18 01:25:57;;;;;;;14.77;9.70;;;;;;;-1.80;88.21;103761.88;4679977;30;20046;-83
2022/03/18 01:28:43;;;;;;;18.67;10.68;;;;;;;-0.58;88.55;103963.03;4680026;30;20151;-83
2022/03/18 01:31:39;;;;;;;15.85;9.85;;;;;;;-0.61;87.75;103958.69;4679888;30;20500;-84
2022/03/18 01:34:04;;;;;;;14.38;9.43;;;;;;;-1.07;88.19;103886.94;4680105;30;20104;-82
2022/03/18 01:36:33;;;;;;;17.17;9.90;;;;;;;-1.57;88.16;103810.84;4697821;30;20115;-84
2022/03/18 01:39:19;;;;;;;12.45;9.15;;;;;;;-1.84;88.64;103780.31;4680049;30;20053;-84
2022/03/18 01:42:01;;;;;;;15.75;10.02;;;;;;;-1.53;88.75;103827.88;4680120;30;20038;-82
2022/03/18 01:45:08;;;;;;;14.18;9.80;;;;;;;-1.89;88.65;103761.56;4680108;30;20041;-83
2022/03/18 01:47:58;;;;;;;14.63;9.60;;;;;;;-0.76;88.75;103959.88;4629375;31;20048;-83
2022/03/18 01:51:04;;;;;;;13.52;9.65;;;;;;;-0.80;88.77;103955.47;4630560;30;20522;-83
2022/03/18 01:56:54;;;;;;;13.35;9.25;;;;;;;-1.31;89.06;103880.19;4629116;31;20178;-83
2022/03/18 01:59:57;;;;;;;11.82;8.68;;;;;;;-0.89;89.17;103956.88;4628912;31;20052;-83
2022/03/18 02:02:23;;;;;;;11.25;8.65;;;;;;;-0.98;89.14;103945.59;4614910;31;20139;-83
2022/03/18 02:05:21;;;;;;;12.90;9.25;;;;;;;-0.98;89.26;103971.81;4612288;31;20134;-82
2022/03/18 02:07:55;;;;;;;13.90;9.00;;;;;;;-1.86;89.23;103829.22;4612351;31;20401;-83
2022/03/18 02:10:28;;;;;;;12.45;8.88;;;;;;;-1.46;89.11;103905.84;4622908;31;20134;-82
2022/03/18 02:12:54;;;;;;;13.27;8.40;;;;;;;-2.16;89.09;103783.38;4617209;31;20043;-81
2022/03/18 02:15:25;;;;;;;13.82;8.88;;;;;;;-1.38;89.46;103913.72;4632093;31;20035;-82
2022/03/18 02:18:08;;;;;;;13.63;9.07;;;;;;;-1.37;89.61;103902.78;4631447;31;20529;-82
2022/03/18 02:20:34;;;;;;;15.25;9.02;;;;;;;-1.82;89.66;103831.91;4632046;31;20183;-82
2022/03/18 02:23:17;;;;;;;13.57;8.77;;;;;;;-2.14;89.15;103774.16;4674522;30;20157;-84
2022/03/18 02:25:42;;;;;;;14.35;8.48;;;;;;;-1.67;89.36;103856.94;4719507;30;20050;-82
2022/03/18 02:28:26;;;;;;;12.95;8.88;;;;;;;-1.86;89.45;103839.34;4719275;30;20037;-83
2022/03/18 02:31:03;;;;;;;13.13;9.00;;;;;;;-2.16;89.81;103791.81;4719372;30;20509;-82
2022/03/18 02:33:35;;;;;;;15.20;9.13;;;;;;;-2.24;90.17;103789.81;4704044;30;20074;-81
2022/03/18 02:36:00;;;;;;;12.80;8.52;;;;;;;-2.22;90.00;103801.72;4719491;30;20108;-82
2022/03/18 02:38:42;;;;;;;16.63;8.52;;;;;;;-1.85;90.16;103868.94;4719224;30;20154;-82
2022/03/18 02:41:19;;;;;;;12.02;8.93;;;;;;;-2.26;90.32;103793.94;4719249;30;20029;-82
2022/03/18 02:43:54;;;;;;;13.70;9.13;;;;;;;-1.84;90.09;103865.59;4719058;30;20072;-83
2022/03/18 02:50:17;;;;;;;15.38;8.77;;;;;;;-1.12;90.52;104003.41;4682624;30;20089;-83
2022/03/18 02:52:48;;;;;;;12.88;8.65;;;;;;;-2.21;90.60;103815.22;4682487;30;20057;-83
2022/03/18 02:55:14;;;;;;;14.88;8.88;;;;;;;-1.63;90.61;103911.97;4682587;30;20045;-83
2022/03/18 02:57:45;;;;;;;14.85;8.70;;;;;;;-1.62;90.80;103920.44;4682399;30;20038;-84
2022/03/18 03:00:29;;;;;;;15.07;8.90;;;;;;;-1.19;90.77;104003.97;4682265;30;20120;-82
2022/03/18 03:03:01;;;;;;;13.65;9.35;;;;;;;-2.02;90.84;103886.88;4698419;30;20478;-84
2022/03/18 03:08:21;;;;;;;12.57;8.10;;;;;;;-1.63;90.70;103946.59;4699545;30;20041;-82
2022/03/18 03:10:46;;;;;;;12.02;8.45;;;;;;;-1.30;90.90;104010.31;4698969;30;20128;-84
2022/03/18 03:13:12;;;;;;;13.55;8.48;;;;;;;-1.39;90.98;103995.63;4684773;30;20140;-84
2022/03/18 03:15:38;;;;;;;13.48;8.63;;;;;;;-1.56;91.02;103972.22;4698937;30;20038;-83
2022/03/18 03:18:05;;;;;;;15.35;8.90;;;;;;;-1.60;90.77;103972.88;4699219;30;20041;-84
2022/03/18 03:20:33;;;;;;;13.63;9.32;;;;;;;-1.37;90.99;104016.00;4699363;30;20072;-84
2022/03/18 03:23:07;;;;;;;13.82;8.70;;;;;;;-1.89;91.00;103943.91;4698458;30;20037;-84
2022/03/18 03:25:53;;;;;;;13.40;9.70;;;;;;;-1.85;90.92;103942.38;4707586;30;20098;-83
2022/03/18 03:28:18;;;;;;;12.95;8.23;;;;;;;-1.39;91.32;104023.53;4720044;30;20043;-83
2022/03/18 03:30:48;;;;;;;13.30;8.77;;;;;;;-1.42;90.91;104018.34;4735631;30;20041;-83
2022/03/18 03:33:22;;;;;;;15.68;8.77;;;;;;;-2.25;91.09;103880.06;4735774;30;20037;-83
2022/03/18 03:35:50;;;;;;;14.25;9.57;;;;;;;-2.26;90.54;103873.28;4735942;30;20450;-83
2022/03/18 03:38:23;;;;;;;13.35;8.25;;;;;;;-1.45;91.18;104028.38;4735495;30;20439;-84
2022/03/18 03:40:49;;;;;;;14.43;8.98;;;;;;;-1.74;91.20;103987.56;4735719;30;20073;-83
2022/03/18 03:43:14;;;;;;;14.25;8.70;;;;;;;-1.63;91.50;104012.47;4735714;30;20032;-84
2022/03/18 03:45:51;;;;;;;13.75;8.68;;;;;;;-1.91;91.68;103967.47;4735496;30;20037;-82
2022/03/18 03:48:20;;;;;;;11.25;8.38;;;;;;;-2.18;91.81;103919.13;4735454;30;20067;-83
2022/03/18 03:50:56;;;;;;;12.98;8.75;;;;;;;-1.88;91.59;103970.09;4735321;30;20032;-82
2022/03/18 03:53:40;;;;;;;12.57;9.30;;;;;;;-1.74;91.49;103994.31;4735418;30;20116;-82
2022/03/18 03:56:21;;;;;;;12.52;7.93;;;;;;;-1.97;91.42;103969.75;4735447;30;20090;-82
2022/03/18 03:58:47;;;;;;;12.90;7.93;;;;;;;-1.51;91.59;104053.47;4719356;30;20073;-83
2022/03/18 04:01:39;;;;;;;12.80;9.13;;;;;;;-1.52;91.92;104059.34;4719435;30;20071;-85
2022/03/18 04:04:05;;;;;;;13.40;8.70;;;;;;;-2.71;91.50;103862.19;4733811;30;20049;-83
2022/03/18 04:06:33;;;;;;;14.15;8.70;;;;;;;-1.69;91.22;104037.53;4735301;30;20070;-82
2022/03/18 04:09:04;;;;;;;12.88;8.50;;;;;;;-1.85;91.41;104026.81;4735379;30;20060;-83
2022/03/18 04:11:30;;;;;;;14.32;8.30;;;;;;;-1.57;91.17;104073.53;4735234;30;20036;-84
2022/03/18 04:13:55;;;;;;;14.13;8.40;;;;;;;-2.45;91.61;103927.38;4735028;30;20037;-83
2022/03/18 04:16:27;;;;;;;11.90;9.02;;;;;;;-2.35;91.64;103952.25;4734989;30;20036;-82
2022/03/18 04:19:13;;;;;;;;;;;;;;;-1.58;90.62;104089.50;4735450;30;20048;-84
2022/03/18 04:22:10;;;;;;;12.13;8.75;;;;;;;-2.04;91.56;104014.22;4719106;30;19957;-82
2022/03/18 04:24:50;;;;;;;13.68;8.77;;;;;;;-2.10;91.13;104007.25;4699982;30;20049;-83
2022/03/18 04:27:21;;;;;;;15.75;9.27;;;;;;;-2.36;91.50;103974.94;4734925;30;20040;-83
2022/03/18 04:30:07;;;;;;;13.18;9.00;;;;;;;-2.36;91.70;103974.94;4734809;30;20040;-81
2022/03/18 04:32:33;;;;;;;14.93;8.70;;;;;;;-1.65;91.90;104095.16;4735007;30;20482;-84
2022/03/18 04:34:59;;;;;;;14.23;9.05;;;;;;;-2.34;92.08;103980.94;4733211;30;20086;-84
2022/03/18 04:37:26;;;;;;;14.43;9.07;;;;;;;-2.25;92.30;104006.63;4718888;30;20083;-82
2022/03/18 04:39:52;;;;;;;13.93;8.63;;;;;;;-1.72;92.22;104099.09;4734935;30;20063;-83
2022/03/18 04:42:26;;;;;;;13.43;8.20;;;;;;;-1.92;92.29;104067.91;4734953;30;20481;-82
2022/03/18 04:44:52;;;;;;;12.52;7.90;;;;;;;-1.89;92.24;104074.75;4734615;30;20039;-84
2022/03/18 04:47:17;;;;;;;12.15;8.38;;;;;;;-2.17;92.24;104040.69;4734439;30;20386;-82
2022/03/18 04:50:00;;;;;;;12.65;8.30;;;;;;;-1.80;92.61;104097.91;4734368;30;20032;-82
2022/03/18 04:52:31;;;;;;;13.85;8.98;;;;;;;-2.28;92.58;104029.25;4734767;30;20064;-82
2022/03/18 04:54:56;;;;;;;13.03;8.53;;;;;;;-1.86;92.31;104108.69;4734637;30;20102;-83
2022/03/18 04:57:22;;;;;;;12.43;8.07;;;;;;;-2.34;92.18;104034.09;4734536;30;20037;-83
2022/03/18 04:59:49;;;;;;;11.77;8.48;;;;;;;-2.15;92.19;104068.63;4732801;30;20040;-82
2022/03/18 05:02:15;;;;;;;14.30;8.57;;;;;;;-1.90;92.53;104119.47;4734332;30;20502;-84
2022/03/18 05:04:48;;;;;;;13.98;8.95;;;;;;;-2.05;92.54;104089.34;4734334;30;20036;-84
2022/03/18 05:11:24;;;;;;;15.85;9.55;;;;;;;-1.88;92.56;104134.72;4734097;30;20075;-83
2022/03/18 05:17:12;;;;;;;13.95;9.40;;;;;;;-2.84;92.38;103987.28;4734203;30;20106;-84
2022/03/18 05:19:52;;;;;;;15.02;10.13;;;;;;;-2.31;92.53;104078.09;4734436;30;20428;-84
2022/03/18 05:22:33;;;;;;;13.00;10.27;;;;;;;-3.15;92.73;103939.56;4717948;30;20064;-84
2022/03/18 05:25:12;;;;;;;14.77;9.80;;;;;;;-3.07;92.51;103960.97;4734329;30;20036;-84
2022/03/18 05:27:44;;;;;;;15.52;10.45;;;;;;;-2.20;92.94;104103.88;4734309;30;20123;-84
2022/03/18 05:30:31;;;;;;;;;;;;;;;-1.91;91.95;104154.88;4734885;30;20044;-85
2022/03/18 05:32:56;;;;;;;15.57;10.00;;;;;;;-2.77;91.84;104003.56;4734317;30;19980;-84
2022/03/18 05:35:22;;;;;;;18.15;10.70;;;;;;;-1.97;92.20;104147.88;4734252;30;20033;-83
2022/03/18 05:37:53;;;;;;;15.65;10.75;;;;;;;-1.94;92.45;104157.28;4734250;30;20110;-82
2022/03/18 05:44:06;;;;;;;21.63;11.23;;;;;;;-1.93;92.59;104142.16;4734255;30;19925;-80
2022/03/18 05:47:21;;;;;;;17.17;10.63;;;;;;;-1.94;92.77;104140.44;4735015;30;20110;-83
2022/03/18 05:49:53;;;;;;;14.75;9.80;;;;;;;-3.18;92.38;103932.72;4737475;30;20155;-83
2022/03/18 05:52:33;;;;;;;16.25;10.77;;;;;;;-2.83;92.52;103994.06;4721948;30;20040;-83
2022/03/18 05:55:13;;;;;;;14.38;10.25;;;;;;;-2.05;92.70;104139.13;4737438;30;20427;-84
2022/03/18 05:57:53;;;;;;;20.13;11.70;;;;;;;-3.09;93.39;103962.56;4737469;30;20033;-85
2022/03/18 06:00:47;;;;;;;15.88;10.88;;;;;;;-1.82;93.32;104171.31;4737413;30;20507;-85
2022/03/18 06:03:13;;;;;;;18.88;10.65;;;;;;;-2.97;92.51;103969.81;4735259;30;20060;-84
2022/03/18 06:12:33;;;;;;;15.73;11.13;;;;;;;-2.15;92.49;104106.63;4667566;30;20057;-85
2022/03/18 06:15:59;;;;;;;17.05;10.48;;;;;;;-2.68;92.39;103999.75;4666007;30;20038;-85
2022/03/18 06:18:30;;;;;;;15.02;10.68;;;;;;;-2.75;92.18;103991.84;4665539;30;20125;-84
2022/03/18 06:20:59;;;;;;;18.70;11.32;;;;;;;-2.63;92.07;103999.97;4665919;30;20046;-83
2022/03/18 06:23:34;;;;;;;15.65;10.63;;;;;;;-1.87;92.37;104129.75;4665872;30;20042;-84
2022/03/18 06:26:38;;;;;;;20.15;11.80;;;;;;;-1.31;92.02;104201.28;4665357;30;20065;-84
2022/03/18 06:29:32;;;;;;;16.30;10.90;;;;;;;-1.71;91.62;104121.09;4665364;30;20085;-85
2022/03/18 06:32:38;;;;;;;17.75;10.73;;;;;;;-1.06;91.82;104198.06;4665194;30;20538;-84
2022/03/18 06:35:28;;;;;;;16.48;11.02;;;;;;;-0.98;91.74;104206.84;4665513;30;20038;-85
2022/03/18 06:38:24;;;;;;;18.55;11.23;;;;;;;-0.87;91.81;104203.91;4665419;30;20524;-83
2022/03/18 06:40:59;;;;;;;17.73;11.30;;;;;;;-1.51;91.43;104097.41;4665108;30;20038;-83
2022/03/18 06:43:24;;;;;;;15.98;10.82;;;;;;;-0.72;91.19;104211.22;4665421;30;20435;-82
2022/03/18 06:45:50;;;;;;;15.98;12.15;;;;;;;-0.73;91.60;104196.81;4725415;30;20127;-82
2022/03/18 06:48:21;;;;;;;17.33;11.80;;;;;;;-0.43;91.78;104214.88;4736423;30;20402;-83
2022/03/18 06:50:46;;;;;;;15.25;11.00;;;;;;;-0.56;91.00;104174.63;4736316;30;20045;-83
2022/03/18 06:53:12;;;;;;;17.92;11.38;;;;;;;-0.28;90.91;104209.50;4720617;30;20057;-83
2022/03/18 06:55:37;;;;;;;16.83;11.63;;;;;;;-0.65;90.31;104132.00;4736174;30;20031;-82
2022/03/18 06:58:02;;;;;;;19.75;12.27;;;;;;;-0.20;90.87;104181.81;4736547;30;20120;-84
2022/03/18 07:00:54;;;;;;;18.83;13.63;;;;;;;-0.94;90.93;104031.09;4735940;30;20059;-85
2022/03/18 07:03:27;;;;;;;18.85;12.90;;;;;;;0.36;90.98;104234.59;4646557;30;20524;-83
2022/03/18 07:06:03;;;;;;;22.83;15.90;;;;;;;0.03;90.49;104163.16;4647044;30;20142;-83
2022/03/18 07:08:29;;;;;;;21.42;13.75;;;;;;;-0.02;90.62;104135.06;4647917;30;20066;-83
2022/03/18 07:11:03;;;;;;;23.85;16.67;;;;;;;0.35;91.06;104168.47;4647902;30;20053;-83
2022/03/18 07:13:31;;;;;;;22.95;15.35;;;;;;;0.52;91.01;104163.13;4633697;30;20098;-83
2022/03/18 07:19:34;;;;;;;18.67;13.25;;;;;;;1.20;90.80;104244.97;4614077;31;20046;-83
2022/03/18 07:22:03;;;;;;;23.08;13.88;;;;;;;1.34;90.69;104241.16;4614863;31;20051;-82
2022/03/18 07:24:28;;;;;;;16.95;13.23;;;;;;;1.23;90.24;104200.94;4664857;24;20091;-82
2022/03/18 07:26:54;;;;;;;21.77;13.55;;;;;;;0.89;90.47;104136.31;4718439;30;20511;-84
2022/03/18 07:29:19;;;;;;;20.95;14.80;;;;;;;1.67;90.60;104243.84;4702215;30;20033;-83
2022/03/18 07:31:44;;;;;;;21.27;15.23;;;;;;;1.78;90.29;104248.41;4702668;30;20425;-80
2022/03/18 07:34:10;;;;;;;27.25;18.90;;;;;;;1.67;90.70;104215.84;4718022;30;20033;-78
2022/03/18 07:36:35;;;;;;;29.85;21.02;;;;;;;1.39;91.09;104150.50;4718375;30;20044;-82
2022/03/18 07:39:00;;;;;;;29.65;20.75;;;;;;;2.23;90.91;104271.72;4718172;30;20037;-80
2022/03/18 07:41:26;;;;;;;27.40;19.88;;;;;;;2.42;90.87;104279.03;4718392;30;20094;-80
2022/03/18 07:43:51;;;;;;;24.45;15.60;;;;;;;2.45;89.68;104256.16;4718087;30;20450;-82
2022/03/18 07:46:17;;;;;;;21.33;13.25;;;;;;;2.66;89.62;104276.28;4718093;30;20029;-79
2022/03/18 07:48:44;;;;;;;19.92;13.60;;;;;;;2.84;89.23;104293.72;4718232;30;20429;-82
2022/03/18 07:51:12;;;;;;;20.20;12.68;;;;;;;2.98;88.91;104289.81;4717712;30;20047;-81
2022/03/18 07:53:59;;;;;;;23.77;12.90;;;;;;;2.93;88.90;104249.69;4718159;30;20044;-82
2022/03/18 08:03:16;;;;;;;19.65;11.48;;;;;;;2.87;87.29;104166.19;4700508;30;20044;-85
2022/03/18 08:14:38;;;;;;;18.98;10.63;;;;;;;3.63;86.97;104238.47;4718133;30;20060;-84
2022/03/18 08:17:19;;;;;;;19.88;11.70;;;;;;;4.13;87.02;104298.31;4715578;30;20581;-81
2022/03/18 08:24:05;;;;;;;24.20;11.15;;;;;;;4.42;85.87;104296.28;4715614;30;20048;-80
2022/03/18 08:26:37;;;;;;;16.35;10.40;;;;;;;3.80;85.06;104164.69;4646809;30;20130;-78
2022/03/18 08:29:07;;;;;;;16.10;8.88;;;;;;;4.52;83.30;104285.41;4646933;30;20070;-84
2022/03/18 08:31:33;;;;;;;20.25;9.18;;;;;;;4.50;83.36;104265.72;4646821;30;20063;-77
2022/03/18 08:33:59;;;;;;;16.15;8.73;;;;;;;4.72;82.89;104292.53;4646267;30;20058;-77
2022/03/18 08:36:25;;;;;;;18.80;9.60;;;;;;;4.95;81.14;104324.53;4632474;30;20461;-81
2022/03/18 08:39:00;;;;;;;13.32;8.40;;;;;;;4.89;81.19;104291.97;4646274;30;20047;-80
2022/03/18 08:41:25;;;;;;;14.68;9.05;;;;;;;4.78;81.25;104270.47;4646627;30;20050;-82
2022/03/18 08:43:50;;;;;;;17.25;9.13;;;;;;;4.75;81.49;104246.53;4646740;30;20102;-80
2022/03/18 08:46:16;;;;;;;14.27;8.23;;;;;;;4.97;80.49;104283.56;4646590;30;20047;-79
2022/03/18 08:48:43;;;;;;;14.93;8.32;;;;;;;5.21;80.62;104321.50;4646240;30;20051;-80
2022/03/18 08:51:10;;;;;;;21.05;8.25;;;;;;;5.23;81.16;104313.03;4646522;30;20042;-80
2022/03/18 08:53:35;;;;;;;15.90;7.75;;;;;;;5.50;80.43;104353.56;4646580;30;20043;-78
2022/03/18 08:56:07;;;;;;;13.93;8.02;;;;;;;5.29;79.15;104300.28;4646552;30;20121;-79
2022/03/18 08:58:33;;;;;;;18.75;8.02;;;;;;;5.78;79.09;104357.38;4646564;30;20039;-78
2022/03/18 09:00:58;;;;;;;16.90;8.65;;;;;;;5.55;77.81;104290.41;4681171;30;20065;-78
2022/03/18 09:03:24;;;;;;;13.45;7.18;;;;;;;5.96;76.50;104349.97;4717107;30;20498;-79
2022/03/18 09:05:49;;;;;;;13.25;6.68;;;;;;;5.72;75.73;104293.19;4716708;30;20041;-79
2022/03/18 09:08:15;;;;;;;15.90;7.30;;;;;;;6.16;76.74;104355.34;4717238;30;20384;-78
2022/03/18 09:10:40;;;;;;;13.93;6.75;;;;;;;5.88;76.36;104304.50;4716938;30;20560;-78
2022/03/18 09:13:14;;;;;;;11.85;5.05;;;;;;;6.19;71.96;104333.97;4717191;30;20033;-79
2022/03/18 09:15:40;;;;;;;11.52;5.15;;;;;;;6.27;71.10;104328.09;4716656;30;20074;-76
2022/03/18 09:18:05;;;;;;;11.32;4.70;;;;;;;6.60;70.22;104363.53;4717061;30;20029;-78
2022/03/18 09:20:30;;;;;;;11.05;4.05;;;;;;;6.72;68.26;104375.66;4716609;30;20120;-76
2022/03/18 09:22:56;;;;;;;10.00;4.18;;;;;;;6.86;67.65;104365.50;4719039;30;20033;-77
2022/03/18 09:25:21;;;;;;;8.38;3.40;;;;;;;6.90;66.07;104367.25;4720611;30;20041;-77
2022/03/18 09:27:46;;;;;;;8.10;3.72;;;;;;;6.99;66.71;104369.06;4720899;30;20448;-78
2022/03/18 09:30:13;;;;;;;9.23;3.70;;;;;;;7.12;65.78;104373.44;4720242;30;20092;-80
2022/03/18 09:32:40;;;;;;;7.70;3.08;;;;;;;7.24;62.00;104370.97;4720554;30;20041;-79
2022/03/18 09:35:06;;;;;;;6.10;2.80;;;;;;;7.23;62.88;104363.25;4720354;30;20025;-80
2022/03/18 09:37:32;;;;;;;6.55;3.20;;;;;;;7.43;60.88;104372.81;4720265;30;20394;-80
2022/03/18 09:39:57;;;;;;;8.73;3.42;;;;;;;7.41;60.40;104350.53;4720429;30;20049;-80
2022/03/18 09:42:22;;;;;;;9.00;3.22;;;;;;;7.59;60.92;104372.94;4720410;30;20029;-79
2022/03/18 09:44:48;;;;;;;7.93;3.30;;;;;;;7.54;60.76;104372.88;4720251;30;20029;-79
2022/03/18 09:47:14;;;;;;;6.88;2.90;;;;;;;7.65;60.85;104371.22;4720163;30;20029;-80
2022/03/18 09:49:45;;;;;;;8.43;3.35;;;;;;;7.68;61.24;104360.13;4719879;30;20434;-81
2022/03/18 09:52:12;;;;;;;7.45;3.08;;;;;;;7.81;60.03;104366.19;4718744;30;20080;-81
2022/03/18 09:54:37;;;;;;;8.02;3.75;;;;;;;8.02;61.30;104374.88;4704492;30;20103;-80
2022/03/18 09:57:04;;;;;;;5.32;2.65;;;;;;;8.05;58.90;104382.59;4704108;30;20045;-82
2022/03/18 09:59:29;;;;;;;11.75;3.20;;;;;;;8.12;58.60;104383.50;4720079;30;20083;-79
2022/03/18 10:02:27;;;;;;;6.78;2.80;;;;;;;8.24;59.38;104393.84;4704039;30;20076;-78
2022/03/18 10:05:01;;;;;;;7.85;2.92;;;;;;;8.36;56.71;104398.22;4719602;30;20040;-77
2022/03/18 10:07:28;;;;;;;6.40;2.58;;;;;;;8.42;56.56;104394.78;4703881;30;20491;-78
2022/03/18 10:10:10;;;;;;;7.03;2.80;;;;;;;8.52;57.37;104396.53;4719517;30;20107;-78
2022/03/18 10:12:42;;;;;;;9.25;2.80;;;;;;;8.61;56.86;104399.13;4719747;30;20060;-79
2022/03/18 10:15:11;;;;;;;5.60;2.70;;;;;;;8.61;55.36;104397.41;4719690;30;20034;-79
2022/03/18 10:17:42;;;;;;;7.97;2.70;;;;;;;8.62;55.47;104398.28;4719985;30;20029;-78
2022/03/18 10:20:22;;;;;;;7.30;2.80;;;;;;;8.74;56.19;104405.16;4719799;30;20033;-81
2022/03/18 10:22:48;;;;;;;6.95;3.05;;;;;;;8.78;54.59;104379.44;4719671;30;20064;-81
2022/03/18 10:25:33;;;;;;;9.02;2.53;;;;;;;9.02;55.46;104398.34;4703427;30;20080;-82
2022/03/18 10:27:59;;;;;;;6.78;2.40;;;;;;;8.97;55.23;104372.56;4719296;30;20041;-80
2022/03/18 10:30:33;;;;;;;11.00;2.72;;;;;;;9.07;54.38;104386.31;4719255;30;20110;-81
2022/03/18 10:32:59;;;;;;;8.27;2.45;;;;;;;9.17;52.79;104395.78;4718965;30;20479;-81
2022/03/18 10:38:35;;;;;;;10.23;2.40;;;;;;;9.29;53.96;104394.91;4719406;30;20506;-79
2022/03/18 10:41:08;;;;;;;5.10;2.38;;;;;;;9.16;53.62;104360.53;4719343;30;20047;-79
2022/03/18 10:43:55;;;;;;;6.72;2.30;;;;;;;9.46;53.15;104409.53;4719182;30;20120;-77
2022/03/18 10:46:22;;;;;;;7.22;2.13;;;;;;;9.50;52.62;104389.72;4719179;30;20386;-77
2022/03/18 10:49:07;;;;;;;5.90;2.40;;;;;;;9.51;53.28;104381.13;4718885;30;20044;-78
2022/03/18 10:51:34;;;;;;;8.13;2.50;;;;;;;9.48;52.36;104368.22;4703040;30;20048;-78
2022/03/18 10:53:59;;;;;;;5.60;2.42;;;;;;;9.62;51.59;104374.22;4719198;30;20033;-77
2022/03/18 10:56:25;;;;;;;5.93;2.28;;;;;;;9.75;51.93;104388.81;4719094;30;20423;-74
2022/03/18 10:58:50;;;;;;;7.82;2.60;;;;;;;9.68;53.20;104357.88;4719019;30;20124;-77
2022/03/18 11:01:18;;;;;;;9.90;2.90;;;;;;;9.98;51.92;104393.91;4719002;30;20360;-79
2022/03/18 11:03:45;;;;;;;6.20;2.60;;;;;;;9.99;51.67;104381.84;4718837;30;20104;-76
2022/03/18 11:06:11;;;;;;;5.25;2.20;;;;;;;10.01;52.07;104378.38;4718642;30;20033;-77
2022/03/18 11:08:50;;;;;;;10.73;3.10;;;;;;;9.93;54.12;104350.88;4718940;30;20040;-78
2022/03/18 11:11:21;;;;;;;7.40;2.63;;;;;;;9.66;51.23;104316.59;4701327;30;20499;-78
2022/03/18 11:13:51;;;;;;;7.22;2.80;;;;;;;9.71;52.57;104330.31;4718879;30;20072;-81
2022/03/18 11:16:22;;;;;;;6.85;2.75;;;;;;;9.70;52.93;104315.69;4718461;30;20111;-78
2022/03/18 11:18:48;;;;;;;5.35;2.70;;;;;;;10.17;51.77;104386.09;4718959;30;20037;-77
2022/03/18 11:21:15;;;;;;;8.25;2.80;;;;;;;10.00;52.72;104352.59;4717252;30;20146;-80
2022/03/18 11:23:44;;;;;;;5.60;2.63;;;;;;;10.11;53.15;104355.97;4718680;30;20060;-77
2022/03/18 11:26:11;;;;;;;7.07;3.13;;;;;;;10.17;51.83;104352.53;4718693;30;20123;-75
2022/03/18 11:28:36;;;;;;;9.63;3.22;;;;;;;10.27;51.37;104380.03;4718740;30;20090;-80
2022/03/18 11:31:09;;;;;;;7.20;2.80;;;;;;;10.28;51.31;104367.13;4718328;30;20049;-81
2022/03/18 11:33:37;;;;;;;9.43;3.05;;;;;;;10.50;52.09;104388.53;4718780;30;20040;-81
2022/03/18 11:36:04;;;;;;;6.75;3.00;;;;;;;10.47;51.04;104380.78;4718227;30;20029;-80
2022/03/18 11:38:51;;;;;;;8.32;2.92;;;;;;;10.59;52.99;104380.72;4718381;30;20033;-78
2022/03/18 11:41:17;;;;;;;10.27;3.70;;;;;;;10.44;51.25;104347.25;4718389;30;20033;-81
2022/03/18 11:43:43;;;;;;;8.45;3.10;;;;;;;10.68;51.58;104381.53;4717558;30;20434;-79
2022/03/18 11:46:34;;;;;;;6.82;2.97;;;;;;;10.70;52.99;104382.38;4718378;30;20033;-79
2022/03/18 11:49:05;;;;;;;8.48;2.92;;;;;;;10.62;52.82;104351.44;4718276;30;20041;-81
2022/03/18 11:51:37;;;;;;;8.23;2.97;;;;;;;10.76;51.46;104362.53;4717913;30;20051;-81
2022/03/18 12:10:54;;;;;;;7.47;2.72;;;;;;;11.12;51.58;104368.28;4663966;30;19975;-82
2022/03/18 12:13:32;;;;;;;7.03;2.90;;;;;;;10.29;52.76;104213.84;4664007;30;20050;-81
2022/03/18 12:15:58;;;;;;;7.38;2.80;;;;;;;10.78;50.95;104288.38;4664063;30;20082;-81
2022/03/18 12:18:27;;;;;;;7.28;3.00;;;;;;;10.86;50.44;104286.59;4663858;30;20062;-80
2022/03/18 12:20:53;;;;;;;7.40;3.08;;;;;;;11.35;51.01;104355.97;4664061;30;20109;-80
2022/03/18 12:23:21;;;;;;;8.43;2.90;;;;;;;11.42;52.42;104357.63;4663644;30;20042;-80
2022/03/18 12:25:46;;;;;;;7.28;2.90;;;;;;;11.35;50.42;104330.09;4663883;30;20062;-80
2022/03/18 12:28:11;;;;;;;6.78;2.90;;;;;;;11.39;50.94;104342.13;4663777;30;20397;-77
2022/03/18 12:30:39;;;;;;;8.13;2.60;;;;;;;11.47;51.37;104349.81;4663787;30;20038;-79
2022/03/18 12:33:08;;;;;;;5.18;2.63;;;;;;;11.46;51.42;104346.38;4700460;30;20053;-81
2022/03/18 12:35:36;;;;;;;7.32;2.58;;;;;;;11.48;51.33;104347.19;4717383;30;20040;-81
2022/03/18 12:38:09;;;;;;;4.88;2.50;;;;;;;11.49;50.99;104343.72;4717173;30;20040;-77
2022/03/18 12:40:38;;;;;;;6.75;2.78;;;;;;;11.67;51.82;104358.22;4717406;30;20098;-77
2022/03/18 12:43:03;;;;;;;7.22;2.78;;;;;;;11.69;50.70;104364.22;4701590;30;20115;-79
2022/03/18 12:45:31;;;;;;;6.47;2.80;;;;;;;11.58;50.55;104328.97;4717053;30;20380;-80
2022/03/18 12:47:59;;;;;;;6.55;3.10;;;;;;;11.70;50.11;104352.13;4717120;30;20057;-79
2022/03/18 12:50:29;;;;;;;7.65;2.45;;;;;;;11.68;51.05;104348.72;4717157;30;20041;-81
2022/03/18 12:52:56;;;;;;;5.97;2.55;;;;;;;11.69;50.92;104353.00;4716745;30;20091;-83
2022/03/18 12:55:26;;;;;;;7.18;3.10;;;;;;;11.68;50.67;104352.16;4717282;30;20395;-77
2022/03/18 13:00:22;;;;;;;7.07;2.75;;;;;;;11.60;50.66;104306.53;4698100;30;20054;-76
2022/03/18 13:02:51;;;;;;;7.45;2.83;;;;;;;11.81;50.07;104337.38;4698582;30;20475;-75
2022/03/18 13:05:19;;;;;;;7.00;3.10;;;;;;;11.75;50.10;104340.88;4700407;30;20108;-75
2022/03/18 13:07:45;;;;;;;6.32;2.75;;;;;;;11.83;50.54;104342.53;4699883;30;20103;-74
2022/03/18 13:10:13;;;;;;;6.68;2.70;;;;;;;11.78;51.55;104314.94;4699744;30;20492;-74